createdAt,value
2018-04-22T00:01:41.264Z,53.20
2018-04-22T00:04:08.234Z,53.20
2018-04-22T00:06:34.431Z,53.10
2018-04-22T00:09:00.609Z,53.20
2018-04-22T00:11:26.845Z,53.20
2018-04-22T00:13:53.063Z,53.20
2018-04-22T00:16:19.997Z,53.20
2018-04-22T00:18:46.947Z,53.20
2018-04-22T00:21:13.167Z,53.30
2018-04-22T00:23:39.385Z,53.30
2018-04-22T00:26:05.627Z,53.20
2018-04-22T00:28:31.811Z,53.00
2018-04-22T00:30:58.778Z,53.30
2018-04-22T00:33:24.987Z,53.20
2018-04-22T00:35:51.193Z,53.20
2018-04-22T00:38:17.442Z,53.20
2018-04-22T00:40:43.673Z,53.20
2018-04-22T00:43:09.907Z,53.20
2018-04-22T00:45:36.129Z,53.20
2018-04-22T00:48:02.354Z,53.20
2018-04-22T00:50:28.546Z,53.30
2018-04-22T00:52:54.736Z,53.30
2018-04-22T00:55:20.962Z,53.20
2018-04-22T00:57:47.292Z,53.20
2018-04-22T01:00:13.523Z,53.20
2018-04-22T01:02:40.467Z,53.20
2018-04-22T01:05:07.426Z,53.20
2018-04-22T01:07:33.664Z,53.20
2018-04-22T01:09:59.878Z,53.20
2018-04-22T01:12:26.102Z,53.20
2018-04-22T01:14:52.271Z,53.20
2018-04-22T01:17:18.528Z,53.20
2018-04-22T01:19:45.475Z,53.10
2018-04-22T01:22:11.670Z,53.10
2018-04-22T01:24:37.894Z,53.10
2018-04-22T01:27:04.131Z,53.10
2018-04-22T01:29:30.317Z,53.10
2018-04-22T01:31:56.540Z,53.00
2018-04-22T01:34:22.747Z,53.10
2018-04-22T01:36:48.975Z,53.00
2018-04-22T01:39:15.209Z,53.00
2018-04-22T01:41:41.603Z,53.00
2018-04-22T01:44:08.563Z,52.90
2018-04-22T01:46:34.773Z,52.90
2018-04-22T01:49:00.970Z,52.90
2018-04-22T01:51:27.976Z,52.90
2018-04-22T01:53:54.217Z,52.90
2018-04-22T01:56:20.413Z,52.80
2018-04-22T01:58:46.649Z,52.80
2018-04-22T02:01:12.836Z,52.80
2018-04-22T02:03:39.032Z,52.80
2018-04-22T02:06:05.282Z,52.80
2018-04-22T02:08:31.496Z,52.70
2018-04-22T02:10:57.729Z,52.70
2018-04-22T02:13:24.659Z,52.60
2018-04-22T02:15:50.933Z,52.50
2018-04-22T02:18:17.175Z,52.60
2018-04-22T02:20:43.365Z,52.50
2018-04-22T02:23:09.590Z,52.50
2018-04-22T02:25:36.569Z,52.50
2018-04-22T02:28:02.823Z,52.50
2018-04-22T02:30:29.063Z,52.40
2018-04-22T02:32:55.304Z,52.30
2018-04-22T02:35:21.559Z,52.30
2018-04-22T02:37:48.511Z,52.30
2018-04-22T02:40:15.495Z,52.90
2018-04-22T02:42:42.439Z,52.70
2018-04-22T02:45:08.733Z,52.30
2018-04-22T02:47:35.059Z,52.40
2018-04-22T02:50:01.306Z,52.30
2018-04-22T02:52:29.023Z,52.50
2018-04-22T02:54:55.246Z,52.40
2018-04-22T02:57:21.482Z,52.90
2018-04-22T02:59:47.700Z,52.40
2018-04-22T03:02:13.917Z,52.50
2018-04-22T03:04:40.152Z,52.40
2018-04-22T03:07:06.366Z,52.40
2018-04-22T03:09:32.580Z,52.40
2018-04-22T03:11:59.541Z,52.40
2018-04-22T03:14:26.523Z,52.20
2018-04-22T03:16:52.746Z,52.20
2018-04-22T03:19:19.704Z,52.30
2018-04-22T03:21:46.368Z,52.20
2018-04-22T03:24:13.312Z,52.50
2018-04-22T03:26:39.498Z,52.20
2018-04-22T03:29:05.690Z,52.20
2018-04-22T03:31:32.352Z,52.20
2018-04-22T03:33:58.634Z,51.80
2018-04-22T03:36:25.592Z,52.90
2018-04-22T03:38:51.817Z,52.20
2018-04-22T03:41:18.034Z,52.20
2018-04-22T03:43:44.309Z,52.20
2018-04-22T03:46:10.552Z,52.20
2018-04-22T03:48:38.255Z,52.20
2018-04-22T03:51:04.453Z,52.20
2018-04-22T03:53:30.693Z,52.20
2018-04-22T03:55:57.633Z,52.20
2018-04-22T03:58:25.332Z,52.20
2018-04-22T04:00:51.551Z,52.20
2018-04-22T04:03:18.493Z,52.20
2018-04-22T04:05:45.433Z,52.50
2018-04-22T04:08:12.367Z,53.00
2018-04-22T04:10:38.587Z,52.20
2018-04-22T04:13:04.807Z,52.10
2018-04-22T04:15:31.029Z,52.10
2018-04-22T04:17:57.260Z,52.00
2018-04-22T04:20:23.479Z,52.00
2018-04-22T04:22:49.683Z,52.00
2018-04-22T04:25:15.910Z,52.00
2018-04-22T04:27:42.121Z,52.00
2018-04-22T04:30:08.322Z,52.00
2018-04-22T04:32:35.267Z,51.90
2018-04-22T04:35:02.222Z,52.30
2018-04-22T04:37:29.147Z,52.70
2018-04-22T04:39:56.128Z,52.60
2018-04-22T04:42:23.105Z,52.60
2018-04-22T04:44:49.319Z,52.60
2018-04-22T04:47:15.527Z,52.60
2018-04-22T04:49:42.494Z,52.50
2018-04-22T04:52:08.755Z,52.40
2018-04-22T04:54:35.003Z,52.40
2018-04-22T04:57:01.213Z,52.40
2018-04-22T04:59:28.171Z,52.40
2018-04-22T05:01:54.823Z,52.40
2018-04-22T05:04:21.751Z,52.30
2018-04-22T05:06:47.967Z,52.30
2018-04-22T05:09:14.170Z,52.20
2018-04-22T05:11:41.748Z,52.70
2018-04-22T05:14:08.718Z,52.00
2018-04-22T05:16:34.945Z,51.90
2018-04-22T05:19:01.148Z,52.00
2018-04-22T05:21:27.356Z,51.80
2018-04-22T05:23:53.554Z,51.80
2018-04-22T05:26:19.786Z,51.70
2018-04-22T05:28:45.974Z,51.50
2018-04-22T05:31:12.266Z,51.40
2018-04-22T05:33:38.429Z,51.10
2018-04-22T05:36:05.360Z,50.70
2018-04-22T05:38:32.293Z,50.70
2018-04-22T05:40:58.542Z,50.60
2018-04-22T05:43:25.490Z,50.40
2018-04-22T05:45:51.940Z,50.40
2018-04-22T05:48:18.150Z,50.30
2018-04-22T05:50:44.388Z,50.50
2018-04-22T05:53:11.402Z,50.60
2018-04-22T05:55:37.618Z,50.60
2018-04-22T05:58:03.869Z,50.60
2018-04-22T06:00:30.096Z,50.50
2018-04-22T06:02:56.360Z,50.60
2018-04-22T06:05:22.557Z,51.20
2018-04-22T06:07:48.780Z,51.10
2018-04-22T06:10:14.992Z,51.30
2018-04-22T06:12:41.203Z,51.00
2018-04-22T06:15:08.170Z,50.80
2018-04-22T06:17:34.349Z,50.80
2018-04-22T06:20:00.586Z,50.80
2018-04-22T06:22:27.554Z,50.50
2018-04-22T06:24:53.794Z,50.50
2018-04-22T06:27:20.019Z,50.70
2018-04-22T06:29:46.245Z,50.60
2018-04-22T06:32:13.256Z,50.40
2018-04-22T06:34:39.486Z,50.40
2018-04-22T06:37:05.672Z,50.10
2018-04-22T06:39:31.894Z,50.50
2018-04-22T06:41:58.138Z,50.30
2018-04-22T06:44:24.378Z,50.20
2018-04-22T06:46:51.344Z,49.90
2018-04-22T06:49:17.581Z,49.90
2018-04-22T06:51:43.851Z,49.50
2018-04-22T06:54:10.072Z,49.30
2018-04-22T06:56:36.302Z,49.40
2018-04-22T06:59:02.534Z,49.40
2018-04-22T07:01:28.804Z,49.10
2018-04-22T07:03:55.039Z,49.10
2018-04-22T07:06:21.231Z,49.00
2018-04-22T07:08:48.166Z,49.70
2018-04-22T07:11:15.118Z,48.80
2018-04-22T07:13:41.402Z,48.70
2018-04-22T07:16:07.631Z,48.80
2018-04-22T07:18:33.842Z,48.70
2018-04-22T07:21:00.808Z,48.80
2018-04-22T07:23:27.776Z,48.90
2018-04-22T07:25:54.020Z,48.80
2018-04-22T07:28:20.240Z,48.90
2018-04-22T07:30:46.463Z,48.90
2018-04-22T07:33:12.705Z,48.90
2018-04-22T07:35:38.994Z,48.90
2018-04-22T07:38:05.223Z,48.90
2018-04-22T07:40:31.451Z,48.90
2018-04-22T07:42:57.710Z,48.90
2018-04-22T07:45:24.677Z,48.90
2018-04-22T07:47:50.866Z,48.90
2018-04-22T07:50:17.827Z,49.00
2018-04-22T07:52:44.028Z,49.00
2018-04-22T07:55:10.974Z,48.90
2018-04-22T07:57:37.916Z,48.90
2018-04-22T08:00:04.861Z,48.90
2018-04-22T08:02:31.064Z,48.90
2018-04-22T08:04:58.467Z,48.80
2018-04-22T08:07:24.709Z,48.60
2018-04-22T08:09:50.943Z,48.60
2018-04-22T08:12:17.179Z,48.70
2018-04-22T08:14:43.444Z,48.70
2018-04-22T08:17:09.677Z,48.50
2018-04-22T08:19:35.881Z,48.60
2018-04-22T08:22:02.877Z,49.30
2018-04-22T08:24:29.136Z,49.20
2018-04-22T08:26:55.326Z,50.00
2018-04-22T08:29:22.323Z,50.70
2018-04-22T08:31:48.639Z,50.60
2018-04-22T08:34:14.867Z,50.30
2018-04-22T08:36:41.195Z,50.30
2018-04-22T08:39:07.524Z,50.30
2018-04-22T08:41:35.238Z,50.20
2018-04-22T08:44:01.477Z,50.10
2018-04-22T08:46:27.982Z,50.30
2018-04-22T08:48:54.284Z,50.20
2018-04-22T08:51:21.256Z,53.10
2018-04-22T08:53:47.465Z,53.10
2018-04-22T08:56:13.675Z,54.10
2018-04-22T08:58:39.865Z,54.10
2018-04-22T09:01:06.815Z,53.80
2018-04-22T09:03:33.057Z,53.50
2018-04-22T09:05:59.324Z,53.10
2018-04-22T09:08:25.603Z,53.10
2018-04-22T09:10:52.607Z,53.10
2018-04-22T09:13:18.830Z,53.80
2018-04-22T09:15:45.025Z,53.00
2018-04-22T09:18:11.284Z,52.70
2018-04-22T09:20:38.237Z,52.40
2018-04-22T09:23:04.461Z,52.30
2018-04-22T09:25:31.405Z,53.00
2018-04-22T09:27:57.691Z,53.00
2018-04-22T09:30:23.966Z,53.60
2018-04-22T09:32:50.138Z,53.40
2018-04-22T09:35:16.355Z,53.50
2018-04-22T09:37:42.562Z,53.80
2018-04-22T09:40:08.782Z,53.90
2018-04-22T09:42:35.008Z,56.80
2018-04-22T09:45:01.238Z,58.60
2018-04-22T09:47:27.480Z,61.00
2018-04-22T09:49:53.722Z,62.10
2018-04-22T09:52:20.634Z,64.20
2018-04-22T09:54:47.635Z,63.30
2018-04-22T09:57:13.813Z,63.20
2018-04-22T09:59:40.040Z,64.30
2018-04-22T10:05:11.632Z,66.90
2018-04-22T10:07:37.856Z,66.80
2018-04-22T10:10:04.062Z,67.90
2018-04-22T10:12:30.274Z,70.10
2018-04-22T10:14:56.482Z,70.70
2018-04-22T10:17:22.686Z,70.60
2018-04-22T10:19:49.665Z,68.50
2018-04-22T10:22:16.623Z,69.80
2018-04-22T10:24:42.878Z,69.80
2018-04-22T10:27:09.843Z,72.00
2018-04-22T10:29:36.061Z,72.00
2018-04-22T10:32:02.325Z,72.50
2018-04-22T10:34:28.587Z,75.80
2018-04-22T10:36:55.602Z,76.60
2018-04-22T10:39:21.817Z,76.40
2018-04-22T10:41:48.060Z,74.00
2018-04-22T10:44:14.291Z,70.90
2018-04-22T10:46:40.589Z,69.20
2018-04-22T10:49:06.772Z,67.00
2018-04-22T10:51:33.023Z,63.70
2018-04-22T10:54:00.009Z,62.50
2018-04-22T10:56:26.965Z,62.10
2018-04-22T10:58:54.007Z,61.30
2018-04-22T11:01:20.257Z,61.30
2018-04-22T11:03:46.490Z,61.10
2018-04-22T11:06:12.719Z,61.10
2018-04-22T11:08:39.695Z,61.00
2018-04-22T11:11:06.680Z,61.50
2018-04-22T11:13:32.905Z,61.50
2018-04-22T11:15:59.095Z,61.00
2018-04-22T11:18:25.351Z,60.60
2018-04-22T11:20:51.575Z,60.30
2018-04-22T11:23:17.803Z,60.60
2018-04-22T11:25:44.760Z,60.80
2018-04-22T11:28:10.973Z,60.80
2018-04-22T11:30:37.214Z,61.10
2018-04-22T11:33:03.387Z,60.80
2018-04-22T11:35:30.346Z,60.50
2018-04-22T11:37:56.547Z,60.50
2018-04-22T11:40:22.740Z,60.40
2018-04-22T11:42:49.001Z,60.20
2018-04-22T11:45:15.197Z,60.60
2018-04-22T11:47:42.150Z,60.40
2018-04-22T11:50:09.121Z,60.30
2018-04-22T11:52:35.354Z,60.20
2018-04-22T11:55:01.564Z,60.50
2018-04-22T11:57:27.784Z,60.50
2018-04-22T11:59:54.125Z,60.30
2018-04-22T12:02:22.226Z,60.10
2018-04-22T12:04:49.942Z,60.60
2018-04-22T12:07:16.166Z,60.60
2018-04-22T12:09:42.406Z,59.20
2018-04-22T12:12:08.629Z,60.10
2018-04-22T12:14:34.929Z,60.70
2018-04-22T12:17:01.151Z,60.30
2018-04-22T12:19:27.380Z,60.00
2018-04-22T12:21:53.625Z,60.00
2018-04-22T12:24:19.795Z,59.60
2018-04-22T12:26:46.012Z,59.60
2018-04-22T12:29:12.261Z,59.80
2018-04-22T12:31:38.463Z,59.60
2018-04-22T12:34:05.493Z,60.90
2018-04-22T12:36:31.717Z,60.90
2018-04-22T12:38:57.930Z,61.70
2018-04-22T12:41:24.176Z,61.90
2018-04-22T12:43:50.370Z,62.10
2018-04-22T12:46:16.578Z,63.00
2018-04-22T12:48:54.665Z,64.40
2018-04-22T12:51:20.944Z,64.20
2018-04-22T12:53:47.182Z,64.60
2018-04-22T12:56:13.391Z,65.50
2018-04-22T12:58:39.602Z,66.50
2018-04-22T13:01:05.820Z,68.00
2018-04-22T13:03:32.014Z,68.80
2018-04-22T13:05:59.037Z,71.00
2018-04-22T13:08:25.221Z,71.00
2018-04-22T13:10:51.420Z,71.10
2018-04-22T13:13:17.669Z,71.10
2018-04-22T13:15:43.894Z,71.40
2018-04-22T13:18:10.080Z,71.30
2018-04-22T13:20:36.315Z,72.00
2018-04-22T13:23:02.550Z,73.20
2018-04-22T13:25:28.776Z,74.00
2018-04-22T13:27:54.984Z,74.50
2018-04-22T13:30:21.927Z,76.00
2018-04-22T13:32:48.184Z,76.10
2018-04-22T13:35:15.192Z,75.80
2018-04-22T13:37:41.418Z,75.80
2018-04-22T13:40:07.615Z,75.50
2018-04-22T13:42:33.842Z,75.60
2018-04-22T13:45:00.824Z,77.50
2018-04-22T13:47:27.804Z,78.20
2018-04-22T13:49:54.008Z,78.10
2018-04-22T13:52:21.027Z,78.80
2018-04-22T13:54:47.242Z,78.80
2018-04-22T13:57:13.492Z,78.60
2018-04-22T13:59:39.708Z,78.10
2018-04-22T14:02:05.946Z,78.10
2018-04-22T14:04:32.155Z,78.00
2018-04-22T14:06:59.109Z,79.40
2018-04-22T14:09:25.361Z,79.30
2018-04-22T14:11:51.607Z,79.90
2018-04-22T14:14:17.831Z,80.70
2018-04-22T14:16:44.029Z,81.30
2018-04-22T14:19:10.270Z,80.90
2018-04-22T14:21:37.399Z,79.80
2018-04-22T14:24:03.590Z,79.80
2018-04-22T14:26:29.812Z,80.10
2018-04-22T14:28:56.018Z,79.30
2018-04-22T14:31:22.250Z,80.00
2018-04-22T14:33:48.449Z,80.60
2018-04-22T14:36:15.400Z,82.80
2018-04-22T14:38:42.356Z,82.50
2018-04-22T14:41:08.668Z,82.20
2018-04-22T14:43:34.870Z,81.80
2018-04-22T14:46:01.062Z,80.60
2018-04-22T14:48:27.313Z,79.80
2018-04-22T14:50:53.553Z,79.60
2018-04-22T14:53:19.767Z,79.00
2018-04-22T14:55:45.983Z,79.90
2018-04-22T14:58:12.983Z,81.10
2018-04-22T15:00:39.983Z,81.70
2018-04-22T15:03:06.976Z,81.80
2018-04-22T15:05:33.208Z,81.80
2018-04-22T15:07:59.438Z,81.70
2018-04-22T15:10:25.657Z,80.00
2018-04-22T15:12:51.865Z,79.60
2018-04-22T15:15:18.831Z,79.00
2018-04-22T15:17:45.045Z,78.90
2018-04-22T15:20:12.013Z,78.50
2018-04-22T15:22:38.204Z,78.40
2018-04-22T15:25:05.216Z,77.80
2018-04-22T15:27:31.407Z,77.80
2018-04-22T15:29:57.640Z,78.10
2018-04-22T15:32:23.834Z,77.20
2018-04-22T15:34:50.071Z,76.90
2018-04-22T15:37:16.298Z,76.60
2018-04-22T15:39:42.538Z,76.40
2018-04-22T15:42:08.833Z,76.00
2018-04-22T15:44:35.769Z,75.50
2018-04-22T15:47:02.727Z,75.50
2018-04-22T15:49:28.965Z,75.50
2018-04-22T15:51:55.820Z,75.50
2018-04-22T15:54:22.041Z,75.20
2018-04-22T15:56:48.235Z,74.90
2018-04-22T15:59:15.219Z,74.40
2018-04-22T16:01:42.193Z,74.30
2018-04-22T16:04:08.448Z,74.30
2018-04-22T16:06:34.671Z,74.00
2018-04-22T16:09:00.925Z,73.80
2018-04-22T16:11:27.115Z,73.70
2018-04-22T16:13:53.349Z,73.40
2018-04-22T16:16:19.603Z,73.30
2018-04-22T16:18:45.833Z,73.20
2018-04-22T16:21:12.057Z,73.10
2018-04-22T16:23:38.265Z,72.90
2018-04-22T16:26:04.494Z,72.60
2018-04-22T16:28:30.692Z,72.40
2018-04-22T16:30:56.906Z,72.40
2018-04-22T16:33:23.143Z,72.20
2018-04-22T16:35:49.418Z,72.00
2018-04-22T16:38:15.567Z,72.00
2018-04-22T16:40:42.512Z,71.80
2018-04-22T16:43:08.706Z,71.60
2018-04-22T16:45:34.897Z,71.50
2018-04-22T16:48:01.168Z,71.40
2018-04-22T16:50:27.392Z,71.40
2018-04-22T16:52:53.614Z,71.10
2018-04-22T16:55:19.821Z,71.00
2018-04-22T16:57:46.008Z,70.90
2018-04-22T17:00:12.946Z,70.60
2018-04-22T17:02:39.238Z,70.50
2018-04-22T17:05:06.184Z,70.30
2018-04-22T17:07:33.171Z,69.90
2018-04-22T17:09:59.420Z,69.90
2018-04-22T17:12:26.392Z,69.40
2018-04-22T17:14:52.671Z,69.50
2018-04-22T17:17:18.875Z,69.30
2018-04-22T17:19:45.072Z,69.10
2018-04-22T17:22:11.288Z,68.90
2018-04-22T17:24:37.508Z,68.80
2018-04-22T17:27:03.760Z,68.60
2018-04-22T17:29:29.979Z,68.60
2018-04-22T17:31:56.240Z,68.70
2018-04-22T17:34:22.457Z,68.50
2018-04-22T17:36:48.711Z,68.40
2018-04-22T17:39:14.970Z,68.20
2018-04-22T17:41:41.658Z,68.30
2018-04-22T17:44:07.883Z,68.20
2018-04-22T17:46:34.875Z,68.00
2018-04-22T17:49:01.084Z,67.90
2018-04-22T17:51:27.984Z,68.00
2018-04-22T17:53:54.238Z,67.70
2018-04-22T17:56:21.223Z,67.90
2018-04-22T17:58:47.433Z,67.90
2018-04-22T18:01:13.628Z,67.80
2018-04-22T18:03:39.859Z,67.80
2018-04-22T18:06:06.091Z,67.70
2018-04-22T18:08:33.065Z,67.70
2018-04-22T18:10:59.299Z,67.50
2018-04-22T18:13:25.528Z,67.40
2018-04-22T18:15:52.540Z,67.10
2018-04-22T18:18:18.729Z,67.00
2018-04-22T18:20:44.966Z,64.20
2018-04-22T18:23:11.932Z,60.00
2018-04-22T18:25:38.160Z,60.00
2018-04-22T18:28:04.400Z,61.70
2018-04-22T18:30:30.598Z,61.20
2018-04-22T18:32:56.834Z,58.00
2018-04-22T18:35:23.091Z,58.20
2018-04-22T18:37:50.072Z,61.30
2018-04-22T18:40:16.327Z,61.30
2018-04-22T18:42:42.642Z,59.40
2018-04-22T18:45:08.891Z,59.40
2018-04-22T18:47:35.169Z,60.30
2018-04-22T18:50:02.149Z,59.90
2018-04-22T18:52:28.365Z,59.80
2018-04-22T18:54:54.573Z,59.60
2018-04-22T18:57:21.521Z,59.10
2018-04-22T18:59:47.759Z,59.00
2018-04-22T19:02:14.043Z,58.80
2018-04-22T19:04:40.241Z,58.40
2018-04-22T19:07:07.249Z,58.10
2018-04-22T19:09:33.532Z,58.10
2018-04-22T19:12:00.667Z,58.30
2018-04-22T19:14:26.879Z,58.80
2018-04-22T19:16:53.823Z,57.90
2018-04-22T19:19:20.807Z,57.80
2018-04-22T19:21:47.099Z,57.80
2018-04-22T19:24:13.367Z,57.40
2018-04-22T19:26:39.637Z,57.10
2018-04-22T19:29:05.889Z,57.00
2018-04-22T19:31:32.093Z,56.80
2018-04-22T19:33:58.320Z,56.80
2018-04-22T19:36:24.552Z,56.60
2018-04-22T19:38:51.560Z,56.20
2018-04-22T19:41:17.825Z,56.10
2018-04-22T19:43:44.792Z,55.90
2018-04-22T19:46:11.055Z,56.40
2018-04-22T19:48:38.097Z,55.40
2018-04-22T19:51:04.365Z,55.50
2018-04-22T19:53:30.562Z,55.10
2018-04-22T19:55:56.761Z,55.10
2018-04-22T19:58:22.965Z,55.20
2018-04-22T20:00:49.906Z,55.00
2018-04-22T20:03:16.883Z,55.60
2018-04-22T20:05:43.128Z,55.10
2018-04-22T20:08:09.348Z,55.10
2018-04-22T20:10:35.607Z,54.80
2018-04-22T20:13:01.826Z,54.80
2018-04-22T20:15:28.079Z,54.70
2018-04-22T20:17:55.011Z,54.70
2018-04-22T20:20:21.273Z,54.70
2018-04-22T20:22:47.473Z,54.70
2018-04-22T20:25:13.712Z,54.70
2018-04-22T20:27:40.683Z,54.40
2018-04-22T20:30:06.933Z,54.40
2018-04-22T20:32:33.126Z,55.70
2018-04-22T20:34:59.394Z,56.20
2018-04-22T20:37:26.354Z,57.50
2018-04-22T20:39:53.340Z,58.30
2018-04-22T20:42:20.310Z,58.60
2018-04-22T20:44:46.533Z,58.60
2018-04-22T20:47:13.285Z,58.80
2018-04-22T20:49:39.519Z,59.00
2018-04-22T20:52:05.760Z,59.00
2018-04-22T20:54:31.990Z,60.10
2018-04-22T20:56:58.254Z,61.10
2018-04-22T20:59:25.229Z,61.70
2018-04-22T21:01:51.633Z,62.20
2018-04-22T21:04:17.851Z,63.10
2018-04-22T21:06:44.055Z,63.90
2018-04-22T21:09:10.271Z,64.30
2018-04-22T21:11:37.239Z,65.40
2018-04-22T21:14:03.479Z,65.40
2018-04-22T21:16:29.675Z,65.90
2018-04-22T21:18:56.633Z,68.40
2018-04-22T21:21:23.580Z,69.30
2018-04-22T21:23:50.574Z,70.20
2018-04-22T21:26:17.528Z,71.60
2018-04-22T21:28:43.772Z,71.50
2018-04-22T21:31:09.981Z,71.50
2018-04-22T21:33:36.236Z,71.50
2018-04-22T21:36:02.471Z,71.80
2018-04-22T21:38:28.719Z,72.00
2018-04-22T21:40:54.993Z,72.80
2018-04-22T21:43:21.207Z,73.90
2018-04-22T21:45:47.428Z,75.10
2018-04-22T21:48:13.620Z,75.40
2018-04-22T21:50:40.631Z,76.20
2018-04-22T21:53:06.876Z,76.20
2018-04-22T21:55:34.549Z,75.90
2018-04-22T21:58:01.523Z,76.50
2018-04-22T22:00:27.752Z,75.90
2018-04-22T22:02:53.947Z,76.40
2018-04-22T22:05:20.159Z,77.60
2018-04-22T22:07:46.373Z,78.30
2018-04-22T22:10:12.636Z,79.10
2018-04-22T22:12:39.612Z,79.80
2018-04-22T22:15:06.557Z,79.30
2018-04-22T22:17:33.487Z,78.70
2018-04-22T22:20:00.473Z,78.40
2018-04-22T22:22:26.701Z,78.40
2018-04-22T22:24:52.904Z,78.90
2018-04-22T22:27:19.853Z,80.60
2018-04-22T22:29:46.088Z,80.70
2018-04-22T22:32:12.306Z,81.40
2018-04-22T22:34:38.509Z,81.90
2018-04-22T22:37:04.721Z,81.80
2018-04-22T22:39:31.689Z,80.40
2018-04-22T22:41:58.375Z,80.60
2018-04-22T22:44:25.318Z,79.80
2018-04-22T22:46:52.311Z,80.80
2018-04-22T22:49:18.576Z,80.70
2018-04-22T22:51:44.837Z,81.30
2018-04-22T22:54:11.770Z,82.40
2018-04-22T22:56:38.727Z,83.30
2018-04-22T22:59:05.753Z,82.00
2018-04-22T23:01:33.519Z,81.20
2018-04-22T23:03:59.729Z,81.10
2018-04-22T23:06:25.926Z,80.40
2018-04-22T23:08:52.157Z,79.70
2018-04-22T23:11:18.388Z,79.60
2018-04-22T23:13:44.580Z,79.70
2018-04-22T23:16:10.790Z,80.50
2018-04-22T23:18:37.748Z,81.00
2018-04-22T23:21:03.991Z,80.90
2018-04-22T23:23:30.199Z,80.20
2018-04-22T23:25:56.419Z,80.00
2018-04-22T23:28:22.635Z,79.50
2018-04-22T23:30:49.581Z,78.90
2018-04-22T23:33:15.823Z,78.90
2018-04-22T23:35:42.066Z,78.50
2018-04-22T23:38:08.310Z,78.90
2018-04-22T23:40:34.525Z,77.60
2018-04-22T23:43:01.477Z,76.70
2018-04-22T23:45:27.709Z,76.70
2018-04-22T23:47:53.929Z,74.40
2018-04-22T23:50:20.861Z,67.80
2018-04-22T23:52:47.089Z,67.70
2018-04-22T23:55:13.273Z,65.20
2018-04-22T23:57:40.223Z,62.00
